createdAt,value
2018-04-27T00:01:00.737Z,3.40
2018-04-27T00:03:28.946Z,4.00
2018-04-27T00:05:57.000Z,4.50
2018-04-27T00:08:24.517Z,5.80
2018-04-27T00:10:52.305Z,6.80
2018-04-27T00:13:19.795Z,3.87
2018-04-27T00:15:47.725Z,3.40
2018-04-27T00:18:15.170Z,3.10
2018-04-27T00:20:42.640Z,3.23
2018-04-27T00:23:10.072Z,3.40
2018-04-27T00:25:37.520Z,3.37
2018-04-27T00:28:04.954Z,3.73
2018-04-27T00:30:32.485Z,3.80
2018-04-27T00:33:00.365Z,3.27
2018-04-27T00:35:27.887Z,3.30
2018-04-27T00:37:55.421Z,3.70
2018-04-27T00:40:23.249Z,4.13
2018-04-27T00:42:50.679Z,3.50
2018-04-27T00:45:19.058Z,3.47
2018-04-27T00:47:46.733Z,4.30
2018-04-27T00:50:14.786Z,3.10
2018-04-27T00:52:54.071Z,3.33
2018-04-27T00:55:21.520Z,3.80
2018-04-27T00:57:49.244Z,3.20
2018-04-27T01:00:16.704Z,3.33
2018-04-27T01:02:44.173Z,3.27
2018-04-27T01:05:11.790Z,3.20
2018-04-27T01:07:39.262Z,3.57
2018-04-27T01:10:06.828Z,3.13
2018-04-27T01:12:34.273Z,3.83
2018-04-27T01:15:01.735Z,5.13
2018-04-27T01:17:29.228Z,5.50
2018-04-27T01:19:56.762Z,4.67
2018-04-27T01:22:24.204Z,5.03
2018-04-27T01:24:51.655Z,4.53
2018-04-27T01:27:19.148Z,3.97
2018-04-27T01:29:46.709Z,3.83
2018-04-27T01:32:14.310Z,3.70
2018-04-27T01:34:41.963Z,3.77
2018-04-27T01:37:09.477Z,3.80
2018-04-27T01:39:36.980Z,3.80
2018-04-27T01:42:04.782Z,3.50
2018-04-27T01:44:32.465Z,4.30
2018-04-27T01:46:59.942Z,3.60
2018-04-27T01:49:27.388Z,3.70
2018-04-27T01:51:55.341Z,4.40
2018-04-27T01:54:22.855Z,4.27
2018-04-27T01:56:50.325Z,4.50
2018-04-27T01:59:17.770Z,3.53
2018-04-27T02:01:45.347Z,4.37
2018-04-27T02:04:12.908Z,4.20
2018-04-27T02:06:40.553Z,4.07
2018-04-27T02:09:08.055Z,4.10
2018-04-27T02:11:35.655Z,4.17
2018-04-27T02:14:03.264Z,4.03
2018-04-27T02:16:30.740Z,4.10
2018-04-27T02:18:58.259Z,4.53
2018-04-27T02:21:27.365Z,4.40
2018-04-27T02:23:54.826Z,4.00
2018-04-27T02:26:22.270Z,4.20
2018-04-27T02:28:49.809Z,3.60
2018-04-27T02:31:17.412Z,4.13
2018-04-27T02:33:44.967Z,3.80
2018-04-27T02:36:12.442Z,4.30
2018-04-27T02:38:39.880Z,4.70
2018-04-27T02:41:07.323Z,4.43
2018-04-27T02:43:34.771Z,3.70
2018-04-27T02:46:02.192Z,4.03
2018-04-27T02:48:29.633Z,4.20
2018-04-27T02:50:57.114Z,3.80
2018-04-27T02:53:24.665Z,3.87
2018-04-27T02:55:52.135Z,3.40
2018-04-27T02:58:19.723Z,3.60
2018-04-27T03:00:47.251Z,3.53
2018-04-27T03:03:14.759Z,3.50
2018-04-27T03:05:42.220Z,3.50
2018-04-27T03:08:09.675Z,3.40
2018-04-27T03:10:37.121Z,3.87
2018-04-27T03:13:04.542Z,3.80
2018-04-27T03:15:32.034Z,3.60
2018-04-27T03:17:59.471Z,4.73
2018-04-27T03:20:27.001Z,3.83
2018-04-27T03:22:54.482Z,3.70
2018-04-27T03:25:21.898Z,4.67
2018-04-27T03:27:49.873Z,3.40
2018-04-27T03:30:17.385Z,3.43
2018-04-27T03:32:44.843Z,3.60
2018-04-27T03:35:12.919Z,3.63
2018-04-27T03:37:40.382Z,3.20
2018-04-27T03:40:07.910Z,3.47
2018-04-27T03:42:36.468Z,4.17
2018-04-27T03:45:03.945Z,3.93
2018-04-27T03:47:31.463Z,3.70
2018-04-27T03:49:58.967Z,3.50
2018-04-27T03:52:26.444Z,3.77
2018-04-27T03:54:53.889Z,4.13
2018-04-27T03:57:21.345Z,4.60
2018-04-27T04:00:00.628Z,4.50
2018-04-27T04:02:39.738Z,3.70
2018-04-27T04:05:19.068Z,3.97
2018-04-27T04:07:47.495Z,4.03
2018-04-27T04:10:14.951Z,4.57
2018-04-27T04:12:42.380Z,4.37
2018-04-27T04:15:10.225Z,4.47
2018-04-27T04:17:37.860Z,4.30
2018-04-27T04:20:05.610Z,4.90
2018-04-27T04:22:33.067Z,5.80
2018-04-27T04:25:00.868Z,4.73
2018-04-27T04:27:28.361Z,5.00
2018-04-27T04:29:55.814Z,4.10
2018-04-27T04:32:23.450Z,5.13
2018-04-27T04:34:50.830Z,5.03
2018-04-27T04:37:18.335Z,4.07
2018-04-27T04:39:45.795Z,4.10
2018-04-27T04:42:13.244Z,4.37
2018-04-27T04:44:40.672Z,4.40
2018-04-27T04:47:08.164Z,4.73
2018-04-27T04:49:35.896Z,5.00
2018-04-27T04:52:03.344Z,4.80
2018-04-27T04:54:30.779Z,4.73
2018-04-27T04:56:58.235Z,5.50
2018-04-27T04:59:25.685Z,5.73
2018-04-27T05:01:53.126Z,5.53
2018-04-27T05:04:20.560Z,4.70
2018-04-27T05:06:48.021Z,4.63
2018-04-27T05:09:15.473Z,5.30
2018-04-27T05:11:43.906Z,5.67
2018-04-27T05:14:11.501Z,5.50
2018-04-27T05:16:39.028Z,4.77
2018-04-27T05:19:06.774Z,4.70
2018-04-27T05:21:34.234Z,5.53
2018-04-27T05:24:01.920Z,4.60
2018-04-27T05:26:29.405Z,5.80
2018-04-27T05:28:56.995Z,5.00
2018-04-27T05:31:24.541Z,10.37
2018-04-27T05:33:51.990Z,5.10
2018-04-27T05:36:19.515Z,5.40
2018-04-27T05:38:47.059Z,5.40
2018-04-27T05:41:14.668Z,5.97
2018-04-27T05:43:42.160Z,5.37
2018-04-27T05:46:10.292Z,5.53
2018-04-27T05:48:39.062Z,5.50
2018-04-27T05:51:06.530Z,5.63
2018-04-27T05:53:34.007Z,5.50
2018-04-27T05:56:01.633Z,5.50
2018-04-27T05:58:29.105Z,5.37
2018-04-27T06:00:56.545Z,4.90
2018-04-27T06:03:24.107Z,4.63
2018-04-27T06:05:51.548Z,4.80
2018-04-27T06:08:18.994Z,5.30
2018-04-27T06:10:46.824Z,5.20
2018-04-27T06:13:15.102Z,4.87
2018-04-27T06:15:42.569Z,5.17
2018-04-27T06:18:10.007Z,5.23
2018-04-27T06:20:37.464Z,5.30
2018-04-27T06:23:04.938Z,5.60
2018-04-27T06:25:32.491Z,4.83
2018-04-27T06:28:00.252Z,5.83
2018-04-27T06:30:27.773Z,5.33
2018-04-27T06:32:55.222Z,5.60
2018-04-27T06:35:22.688Z,5.40
2018-04-27T06:37:50.320Z,5.13
2018-04-27T06:40:18.741Z,5.13
2018-04-27T06:42:46.191Z,4.93
2018-04-27T06:45:13.664Z,4.90
2018-04-27T06:47:41.227Z,5.33
2018-04-27T06:50:08.975Z,5.20
2018-04-27T06:52:36.534Z,5.40
2018-04-27T06:55:08.838Z,4.87
2018-04-27T06:57:36.274Z,4.70
2018-04-27T07:00:03.992Z,5.60
2018-04-27T07:02:31.464Z,4.60
2018-04-27T07:04:59.140Z,4.40
2018-04-27T07:07:26.746Z,4.50
2018-04-27T07:09:54.228Z,5.00
2018-04-27T07:12:21.766Z,5.70
2018-04-27T07:14:49.327Z,4.37
2018-04-27T07:17:16.869Z,4.33
2018-04-27T07:19:44.395Z,4.97
2018-04-27T07:22:11.880Z,4.70
2018-04-27T07:24:39.352Z,5.00
2018-04-27T07:27:07.413Z,4.53
2018-04-27T07:29:34.873Z,4.47
2018-04-27T07:32:02.507Z,4.90
2018-04-27T07:34:30.070Z,4.73
2018-04-27T07:36:57.728Z,4.30
2018-04-27T07:39:25.207Z,4.03
2018-04-27T07:41:52.649Z,3.90
2018-04-27T07:44:20.102Z,3.80
2018-04-27T07:46:47.582Z,4.07
2018-04-27T07:49:15.028Z,3.47
2018-04-27T07:51:42.493Z,3.60
2018-04-27T07:54:09.946Z,3.37
2018-04-27T07:56:37.583Z,3.00
2018-04-27T07:59:05.154Z,3.17
2018-04-27T08:01:33.435Z,3.60
2018-04-27T08:04:00.997Z,3.13
2018-04-27T08:06:28.596Z,3.30
2018-04-27T08:08:56.143Z,2.77
2018-04-27T08:11:23.672Z,3.20
2018-04-27T08:13:51.256Z,2.90
2018-04-27T08:16:18.693Z,3.50
2018-04-27T08:18:46.238Z,3.20
2018-04-27T08:21:13.743Z,3.10
2018-04-27T08:23:41.180Z,3.70
2018-04-27T08:26:08.617Z,2.80
2018-04-27T08:28:37.015Z,3.30
2018-04-27T08:31:04.523Z,2.90
2018-04-27T08:33:32.059Z,3.40
2018-04-27T08:35:59.652Z,3.47
2018-04-27T08:38:27.219Z,3.20
2018-04-27T08:40:54.925Z,2.60
2018-04-27T08:43:22.423Z,2.70
2018-04-27T08:45:49.991Z,2.43
2018-04-27T08:48:17.439Z,3.07
2018-04-27T08:50:44.922Z,2.63
2018-04-27T08:53:12.596Z,2.73
2018-04-27T08:55:40.025Z,2.67
2018-04-27T08:58:07.635Z,2.70
2018-04-27T09:00:35.292Z,2.73
2018-04-27T09:03:02.857Z,2.60
2018-04-27T09:05:31.159Z,3.17
2018-04-27T09:07:58.633Z,2.47
2018-04-27T09:10:26.126Z,2.67
2018-04-27T09:12:53.632Z,2.37
2018-04-27T09:15:21.328Z,2.33
2018-04-27T09:17:48.765Z,2.50
2018-04-27T09:20:16.312Z,2.80
2018-04-27T09:22:44.149Z,2.53
2018-04-27T09:25:11.684Z,2.80
2018-04-27T09:27:40.033Z,2.40
2018-04-27T09:30:07.610Z,2.57
2018-04-27T09:32:35.169Z,2.33
2018-04-27T09:35:02.686Z,2.77
2018-04-27T09:37:30.285Z,2.67
2018-04-27T09:39:57.738Z,3.53
2018-04-27T09:42:25.833Z,3.40
2018-04-27T09:44:53.386Z,3.23
2018-04-27T09:47:21.041Z,3.77
2018-04-27T09:49:48.729Z,3.33
2018-04-27T09:52:18.126Z,3.60
2018-04-27T09:54:45.776Z,3.90
2018-04-27T09:57:14.452Z,3.77
2018-04-27T09:59:42.014Z,3.30
2018-04-27T10:02:09.541Z,3.40
2018-04-27T10:04:37.982Z,4.03
2018-04-27T10:07:05.569Z,4.03
2018-04-27T10:09:33.240Z,3.40
2018-04-27T10:12:00.825Z,3.40
2018-04-27T10:14:28.313Z,4.43
2018-04-27T10:16:55.831Z,2.90
2018-04-27T10:19:23.426Z,2.70
2018-04-27T10:21:51.072Z,3.87
2018-04-27T10:24:18.640Z,3.90
2018-04-27T10:26:46.119Z,3.73
2018-04-27T10:29:13.661Z,4.00
2018-04-27T10:31:41.246Z,3.80
2018-04-27T10:34:08.912Z,3.27
2018-04-27T10:36:37.643Z,3.47
2018-04-27T10:39:05.966Z,4.10
2018-04-27T10:41:33.531Z,3.70
2018-04-27T10:44:01.327Z,3.00
2018-04-27T10:46:29.031Z,3.60
2018-04-27T10:48:57.482Z,3.80
2018-04-27T10:51:25.028Z,3.80
2018-04-27T10:53:52.549Z,3.90
2018-04-27T10:56:20.056Z,3.77
2018-04-27T10:58:47.629Z,3.43
2018-04-27T11:01:15.190Z,3.50
2018-04-27T11:03:42.660Z,3.30
2018-04-27T11:06:11.004Z,4.17
2018-04-27T11:08:38.606Z,3.63
2018-04-27T11:11:06.262Z,4.20
2018-04-27T11:13:33.874Z,4.43
2018-04-27T11:16:01.363Z,5.10
2018-04-27T11:18:29.814Z,4.63
2018-04-27T11:20:57.566Z,3.97
2018-04-27T11:23:25.004Z,3.53
2018-04-27T11:25:52.525Z,3.30
2018-04-27T11:28:19.979Z,4.30
2018-04-27T11:30:47.440Z,4.23
2018-04-27T11:33:15.048Z,3.60
2018-04-27T11:35:42.629Z,3.87
2018-04-27T11:38:10.211Z,3.57
2018-04-27T11:40:37.845Z,3.80
2018-04-27T11:43:05.321Z,4.60
2018-04-27T11:45:32.790Z,4.90
2018-04-27T11:48:00.287Z,4.00
2018-04-27T11:50:27.809Z,4.37
2018-04-27T11:52:55.322Z,3.60
2018-04-27T11:55:25.368Z,3.70
2018-04-27T11:57:56.824Z,4.07
2018-04-27T12:03:52.689Z,4.20
2018-04-27T12:06:28.064Z,3.70
2018-04-27T12:08:57.185Z,4.53
2018-04-27T12:11:25.534Z,4.30
2018-04-27T12:13:54.043Z,5.50
2018-04-27T12:16:21.959Z,4.03
2018-04-27T12:18:50.127Z,5.30
2018-04-27T12:21:18.927Z,4.47
2018-04-27T12:23:49.417Z,3.73
2018-04-27T12:29:28.337Z,4.10
2018-04-27T12:31:56.053Z,4.50
2018-04-27T12:34:23.559Z,3.73
2018-04-27T12:36:51.213Z,3.67
2018-04-27T12:39:18.860Z,4.27
2018-04-27T12:41:47.369Z,4.60
2018-04-27T12:44:14.828Z,3.83
2018-04-27T12:46:42.432Z,3.60
2018-04-27T12:49:09.965Z,3.77
2018-04-27T12:51:37.607Z,4.30
2018-04-27T12:54:05.503Z,3.50
2018-04-27T12:56:33.469Z,3.53
2018-04-27T12:59:00.994Z,3.73
2018-04-27T13:01:28.499Z,3.97
2018-04-27T13:03:56.118Z,3.33
2018-04-27T13:06:25.410Z,4.47
2018-04-27T13:08:53.914Z,3.60
2018-04-27T13:11:21.379Z,3.90
2018-04-27T13:13:49.734Z,3.30
2018-04-27T13:16:17.220Z,3.90
2018-04-27T13:18:44.797Z,3.60
2018-04-27T13:21:12.252Z,3.90
2018-04-27T13:23:39.783Z,3.83
2018-04-27T13:26:07.244Z,4.17
2018-04-27T13:28:35.201Z,3.23
2018-04-27T13:31:02.777Z,3.40
2018-04-27T13:33:30.385Z,3.53
2018-04-27T13:35:57.888Z,3.07
2018-04-27T13:38:25.522Z,3.63
2018-04-27T13:40:53.723Z,3.20
2018-04-27T13:43:21.581Z,3.67
2018-04-27T13:45:49.981Z,4.17
2018-04-27T13:48:17.474Z,3.77
2018-04-27T13:50:45.065Z,4.50
2018-04-27T13:53:12.712Z,3.37
2018-04-27T13:55:40.222Z,3.53
2018-04-27T13:58:07.746Z,3.97
2018-04-27T14:00:35.233Z,3.40
2018-04-27T14:03:02.731Z,3.30
2018-04-27T14:05:30.337Z,3.60
2018-04-27T14:07:57.736Z,4.10
2018-04-27T14:10:26.690Z,3.60
2018-04-27T14:12:54.155Z,4.33
2018-04-27T14:15:21.632Z,4.13
2018-04-27T14:17:49.077Z,4.80
2018-04-27T14:20:16.622Z,3.90
2018-04-27T14:22:44.217Z,3.87
2018-04-27T14:25:11.710Z,3.60
2018-04-27T14:27:39.162Z,3.70
2018-04-27T14:30:07.025Z,3.30
2018-04-27T14:32:34.567Z,3.17
2018-04-27T14:35:02.056Z,3.50
2018-04-27T14:37:29.587Z,3.20
2018-04-27T14:39:57.347Z,3.60
2018-04-27T14:42:24.868Z,3.10
2018-04-27T14:44:52.417Z,3.67
2018-04-27T14:47:20.029Z,3.10
2018-04-27T14:49:47.536Z,3.07
2018-04-27T14:52:15.182Z,2.90
2018-04-27T14:54:42.898Z,3.43
2018-04-27T14:57:10.511Z,3.50
2018-04-27T14:59:38.040Z,4.00
2018-04-27T15:02:05.491Z,3.43
2018-04-27T15:04:32.973Z,3.20
2018-04-27T15:07:00.633Z,3.53
2018-04-27T15:09:28.787Z,3.70
2018-04-27T15:11:56.475Z,3.77
2018-04-27T15:14:24.709Z,4.20
2018-04-27T15:16:52.233Z,3.97
2018-04-27T15:19:20.154Z,3.80
2018-04-27T15:21:47.603Z,4.00
2018-04-27T15:24:15.068Z,3.87
2018-04-27T15:26:43.038Z,3.83
2018-04-27T15:29:10.584Z,3.70
2018-04-27T15:31:38.073Z,3.20
2018-04-27T15:34:05.591Z,3.33
2018-04-27T15:36:33.159Z,2.90
2018-04-27T15:39:00.601Z,3.13
2018-04-27T15:41:28.159Z,2.90
2018-04-27T15:43:55.811Z,3.50
2018-04-27T15:46:23.283Z,2.97
2018-04-27T15:48:50.837Z,3.00
2018-04-27T15:51:18.482Z,3.27
2018-04-27T15:53:46.078Z,3.10
2018-04-27T15:56:13.533Z,3.00
2018-04-27T15:58:41.459Z,3.30
2018-04-27T16:01:09.012Z,3.13
2018-04-27T16:03:36.543Z,2.93
2018-04-27T16:06:04.186Z,2.93
2018-04-27T16:08:31.732Z,2.60
2018-04-27T16:10:59.681Z,3.20
2018-04-27T16:13:42.929Z,2.90
2018-04-27T16:16:11.131Z,2.90
2018-04-27T16:18:38.608Z,2.70
2018-04-27T16:21:06.150Z,3.37
2018-04-27T16:23:34.159Z,3.00
2018-04-27T16:26:02.660Z,3.13
2018-04-27T16:28:30.101Z,3.20
2018-04-27T16:30:57.778Z,3.10
2018-04-27T16:33:25.295Z,2.80
2018-04-27T16:35:53.242Z,3.10
2018-04-27T16:38:20.718Z,2.70
2018-04-27T16:40:48.517Z,2.90
2018-04-27T16:43:16.212Z,3.10
2018-04-27T16:45:43.801Z,3.13
2018-04-27T16:48:11.307Z,3.00
2018-04-27T16:50:38.960Z,2.40
2018-04-27T16:53:06.445Z,3.20
2018-04-27T16:55:33.934Z,2.83
2018-04-27T16:58:01.432Z,3.30
2018-04-27T17:00:28.909Z,3.00
2018-04-27T17:02:56.967Z,2.93
2018-04-27T17:05:24.461Z,3.03
2018-04-27T17:07:52.214Z,2.70
2018-04-27T17:10:19.811Z,2.53
2018-04-27T17:12:47.578Z,2.57
2018-04-27T17:15:16.333Z,3.00
2018-04-27T17:17:43.949Z,3.40
2018-04-27T17:20:11.447Z,3.50
2018-04-27T17:22:39.331Z,3.60
2018-04-27T17:25:07.855Z,3.23
2018-04-27T17:27:35.369Z,2.90
2018-04-27T17:30:03.485Z,2.87
2018-04-27T17:32:31.942Z,2.80
2018-04-27T17:35:00.056Z,3.13
2018-04-27T17:37:27.594Z,3.37
2018-04-27T17:39:55.153Z,3.77
2018-04-27T17:42:23.117Z,2.70
2018-04-27T17:44:51.095Z,2.70
2018-04-27T17:47:18.767Z,2.80
2018-04-27T17:49:56.249Z,2.30
2018-04-27T17:52:23.786Z,2.10
2018-04-27T17:54:51.409Z,2.30
2018-04-27T17:57:19.375Z,1.83
2018-04-27T18:02:24.829Z,1.97
2018-04-27T18:04:55.241Z,1.73
2018-04-27T18:07:22.856Z,1.90
2018-04-27T18:09:50.311Z,1.93
2018-04-27T18:12:17.945Z,1.73
2018-04-27T18:14:48.608Z,1.57
2018-04-27T18:17:16.215Z,1.50
2018-04-27T18:19:46.273Z,1.50
2018-04-27T18:22:13.950Z,1.63
2018-04-27T18:24:42.670Z,1.67
2018-04-27T18:27:10.123Z,1.50
2018-04-27T18:29:38.277Z,1.63
2018-04-27T18:32:05.860Z,2.27
2018-04-27T18:34:33.428Z,1.50
2018-04-27T18:37:00.994Z,1.77
2018-04-27T18:39:30.849Z,1.93
2018-04-27T18:41:58.465Z,1.60
2018-04-27T18:44:26.525Z,1.63
2018-04-27T18:46:55.141Z,1.50
2018-04-27T18:49:29.377Z,1.90
2018-04-27T18:52:04.079Z,2.10
2018-04-27T18:54:31.551Z,1.90
2018-04-27T18:57:00.256Z,2.13
2018-04-27T18:59:27.825Z,2.37
2018-04-27T19:01:55.331Z,2.30
2018-04-27T19:04:22.876Z,1.97
2018-04-27T19:06:50.352Z,2.13
2018-04-27T19:09:18.042Z,1.87
2018-04-27T19:11:46.395Z,2.00
2018-04-27T19:14:15.275Z,2.07
2018-04-27T19:16:43.260Z,2.00
2018-04-27T19:19:10.769Z,1.80
2018-04-27T19:21:38.319Z,2.10
2018-04-27T19:24:05.830Z,2.30
2018-04-27T19:26:33.365Z,2.00
2018-04-27T19:29:01.917Z,2.10
2018-04-27T19:31:30.029Z,2.67
2018-04-27T19:33:58.110Z,2.60
2018-04-27T19:36:25.839Z,2.90
2018-04-27T19:38:53.399Z,3.33
2018-04-27T19:41:27.264Z,2.93
2018-04-27T19:43:55.686Z,1.93
2018-04-27T19:46:23.801Z,2.20
2018-04-27T19:48:51.475Z,2.20
2018-04-27T19:51:19.090Z,1.90
2018-04-27T19:53:46.776Z,2.20
2018-04-27T19:56:16.186Z,2.37
2018-04-27T19:58:44.149Z,1.80
2018-04-27T20:01:11.629Z,2.50
2018-04-27T20:03:39.085Z,2.10
2018-04-27T20:06:06.730Z,2.27
2018-04-27T20:08:35.238Z,1.90
2018-04-27T20:11:02.937Z,2.10
2018-04-27T20:13:30.679Z,2.17
2018-04-27T20:16:00.867Z,2.20
2018-04-27T20:18:29.418Z,2.07
2018-04-27T20:21:01.190Z,2.63
2018-04-27T20:23:30.515Z,2.40
2018-04-27T20:26:00.038Z,2.07
2018-04-27T20:28:29.577Z,2.50
2018-04-27T20:30:57.400Z,1.90
2018-04-27T20:33:24.885Z,2.40
2018-04-27T20:35:57.154Z,2.40
2018-04-27T20:38:27.111Z,2.50
2018-04-27T20:40:54.628Z,1.93
2018-04-27T20:43:24.560Z,1.93
2018-04-27T20:45:53.453Z,2.33
2018-04-27T20:48:21.773Z,1.70
2018-04-27T20:50:52.516Z,1.97
2018-04-27T20:53:21.866Z,2.23
2018-04-27T20:55:52.795Z,2.50
2018-04-27T20:58:20.289Z,2.37
2018-04-27T21:00:47.911Z,2.40
2018-04-27T21:03:15.553Z,2.47
2018-04-27T21:05:43.127Z,2.20
2018-04-27T21:08:10.595Z,2.20
2018-04-27T21:10:38.155Z,2.40
